Terminal Aerodrome Forecast
Issued by NWS Brownsville, TX

Home | Current Version | Previous Version | Text Only | Print | Product List | Glossary On
Versions: 1 2 3 4 5 6 7 8 9 10 11 12 13 14 15 16 17 18 19 20 21 22 23
525
FTUS44 KBRO 090520
TAFHRL
TAF
KHRL 090520Z 0906/1006 34017G26KT P6SM OVC020
     FM091200 33016G24KT P6SM -RA OVC012
     FM092000 33012G18KT P6SM OVC012
     FM100000 34010KT P6SM OVC012
      TEMPO 1003/1006 OVC008=

USA.gov is the U.S. government's official web portal to all federal, state and local government web resources and services.